sensor_id;sensor_type;location;lat;lon;timestamp;P1;durP1;ratioP1;P2;durP2;ratioP2
72319;SDS011;60269;52.502;16.732;2023-07-31T00:00:13;5.10;;;1.33;;
72319;SDS011;60269;52.502;16.732;2023-07-31T00:04:05;5.65;;;1.50;;
72319;SDS011;60269;52.502;16.732;2023-07-31T00:07:37;7.33;;;1.60;;
72319;SDS011;60269;52.502;16.732;2023-07-31T00:11:10;5.77;;;1.40;;
72319;SDS011;60269;52.502;16.732;2023-07-31T00:14:41;5.95;;;1.75;;
72319;SDS011;60269;52.502;16.732;2023-07-31T00:18:14;5.40;;;1.83;;
72319;SDS011;60269;52.502;16.732;2023-07-31T00:21:47;6.00;;;1.70;;
72319;SDS011;60269;52.502;16.732;2023-07-31T00:25:19;4.40;;;1.13;;
72319;SDS011;60269;52.502;16.732;2023-07-31T00:28:51;7.95;;;1.90;;
72319;SDS011;60269;52.502;16.732;2023-07-31T00:32:23;7.78;;;1.63;;
72319;SDS011;60269;52.502;16.732;2023-07-31T00:35:55;4.87;;;1.50;;
72319;SDS011;60269;52.502;16.732;2023-07-31T00:39:29;6.53;;;2.00;;
72319;SDS011;60269;52.502;16.732;2023-07-31T00:43:02;6.68;;;1.75;;
72319;SDS011;60269;52.502;16.732;2023-07-31T00:46:35;5.10;;;1.30;;
72319;SDS011;60269;52.502;16.732;2023-07-31T00:50:08;5.47;;;1.67;;
72319;SDS011;60269;52.502;16.732;2023-07-31T00:53:40;6.93;;;1.50;;
72319;SDS011;60269;52.502;16.732;2023-07-31T00:57:15;7.88;;;2.13;;
72319;SDS011;60269;52.502;16.732;2023-07-31T01:00:47;6.38;;;1.55;;
72319;SDS011;60269;52.502;16.732;2023-07-31T01:04:20;8.10;;;1.63;;
72319;SDS011;60269;52.502;16.732;2023-07-31T01:07:56;6.30;;;1.87;;
72319;SDS011;60269;52.502;16.732;2023-07-31T01:11:53;8.63;;;2.35;;
72319;SDS011;60269;52.502;16.732;2023-07-31T01:15:29;6.22;;;1.83;;
72319;SDS011;60269;52.502;16.732;2023-07-31T01:19:01;7.37;;;2.43;;
72319;SDS011;60269;52.502;16.732;2023-07-31T01:26:16;6.50;;;1.70;;
72319;SDS011;60269;52.502;16.732;2023-07-31T01:33:42;6.47;;;1.90;;
72319;SDS011;60269;52.502;16.732;2023-07-31T01:37:14;5.87;;;1.70;;
72319;SDS011;60269;52.502;16.732;2023-07-31T01:40:48;7.28;;;2.20;;
72319;SDS011;60269;52.502;16.732;2023-07-31T01:44:23;6.80;;;2.33;;
72319;SDS011;60269;52.502;16.732;2023-07-31T01:47:55;6.57;;;1.97;;
72319;SDS011;60269;52.502;16.732;2023-07-31T01:51:28;6.03;;;1.97;;
72319;SDS011;60269;52.502;16.732;2023-07-31T01:54:59;7.45;;;1.67;;
72319;SDS011;60269;52.502;16.732;2023-07-31T01:58:32;7.82;;;2.08;;
72319;SDS011;60269;52.502;16.732;2023-07-31T02:02:04;5.73;;;1.70;;
72319;SDS011;60269;52.502;16.732;2023-07-31T02:05:43;7.43;;;1.23;;
72319;SDS011;60269;52.502;16.732;2023-07-31T02:09:16;6.03;;;1.85;;
72319;SDS011;60269;52.502;16.732;2023-07-31T02:12:48;7.22;;;1.88;;
72319;SDS011;60269;52.502;16.732;2023-07-31T02:16:20;6.57;;;2.20;;
72319;SDS011;60269;52.502;16.732;2023-07-31T02:19:53;8.83;;;2.60;;
72319;SDS011;60269;52.502;16.732;2023-07-31T02:23:25;9.25;;;2.30;;
72319;SDS011;60269;52.502;16.732;2023-07-31T02:26:57;9.32;;;2.25;;
72319;SDS011;60269;52.502;16.732;2023-07-31T02:30:29;8.10;;;2.10;;
72319;SDS011;60269;52.502;16.732;2023-07-31T02:34:02;6.82;;;2.05;;
72319;SDS011;60269;52.502;16.732;2023-07-31T02:37:34;8.45;;;2.92;;
72319;SDS011;60269;52.502;16.732;2023-07-31T02:41:06;8.70;;;2.70;;
72319;SDS011;60269;52.502;16.732;2023-07-31T02:44:38;10.77;;;2.47;;
72319;SDS011;60269;52.502;16.732;2023-07-31T02:48:10;7.60;;;2.65;;
72319;SDS011;60269;52.502;16.732;2023-07-31T02:51:42;6.07;;;2.08;;
72319;SDS011;60269;52.502;16.732;2023-07-31T02:55:14;10.50;;;2.20;;
72319;SDS011;60269;52.502;16.732;2023-07-31T02:58:49;9.73;;;1.90;;
72319;SDS011;60269;52.502;16.732;2023-07-31T03:02:21;8.55;;;2.60;;
72319;SDS011;60269;52.502;16.732;2023-07-31T03:05:53;6.95;;;2.00;;
72319;SDS011;60269;52.502;16.732;2023-07-31T03:09:25;8.10;;;2.20;;
72319;SDS011;60269;52.502;16.732;2023-07-31T03:12:57;7.37;;;2.10;;
72319;SDS011;60269;52.502;16.732;2023-07-31T03:16:30;7.07;;;2.60;;
72319;SDS011;60269;52.502;16.732;2023-07-31T03:20:02;7.28;;;1.98;;
72319;SDS011;60269;52.502;16.732;2023-07-31T03:23:35;8.27;;;2.23;;
72319;SDS011;60269;52.502;16.732;2023-07-31T03:27:07;7.47;;;2.30;;
72319;SDS011;60269;52.502;16.732;2023-07-31T03:30:40;8.60;;;2.60;;
72319;SDS011;60269;52.502;16.732;2023-07-31T03:34:13;6.35;;;2.40;;
72319;SDS011;60269;52.502;16.732;2023-07-31T03:37:45;9.47;;;2.80;;
72319;SDS011;60269;52.502;16.732;2023-07-31T03:41:19;7.57;;;2.53;;
72319;SDS011;60269;52.502;16.732;2023-07-31T03:44:51;7.95;;;2.95;;
72319;SDS011;60269;52.502;16.732;2023-07-31T03:48:23;9.43;;;2.47;;
72319;SDS011;60269;52.502;16.732;2023-07-31T03:51:56;9.00;;;2.77;;
72319;SDS011;60269;52.502;16.732;2023-07-31T03:55:29;8.13;;;2.77;;
72319;SDS011;60269;52.502;16.732;2023-07-31T03:59:03;8.65;;;3.17;;
72319;SDS011;60269;52.502;16.732;2023-07-31T04:02:35;9.57;;;3.25;;
72319;SDS011;60269;52.502;16.732;2023-07-31T04:06:08;8.83;;;3.00;;
72319;SDS011;60269;52.502;16.732;2023-07-31T04:09:40;9.17;;;3.37;;
72319;SDS011;60269;52.502;16.732;2023-07-31T04:13:12;10.45;;;3.80;;
72319;SDS011;60269;52.502;16.732;2023-07-31T04:16:43;7.63;;;2.88;;
72319;SDS011;60269;52.502;16.732;2023-07-31T04:20:16;8.43;;;2.50;;
72319;SDS011;60269;52.502;16.732;2023-07-31T04:23:48;8.67;;;2.33;;
72319;SDS011;60269;52.502;16.732;2023-07-31T04:27:20;9.15;;;2.85;;
72319;SDS011;60269;52.502;16.732;2023-07-31T04:30:52;7.78;;;2.20;;
72319;SDS011;60269;52.502;16.732;2023-07-31T04:34:25;7.63;;;2.80;;
72319;SDS011;60269;52.502;16.732;2023-07-31T04:37:57;10.23;;;2.73;;
72319;SDS011;60269;52.502;16.732;2023-07-31T04:41:29;8.63;;;3.10;;
72319;SDS011;60269;52.502;16.732;2023-07-31T04:45:01;11.05;;;2.85;;
72319;SDS011;60269;52.502;16.732;2023-07-31T04:48:33;17.90;;;3.13;;
72319;SDS011;60269;52.502;16.732;2023-07-31T04:52:05;7.30;;;2.53;;
72319;SDS011;60269;52.502;16.732;2023-07-31T04:55:38;8.55;;;2.70;;
72319;SDS011;60269;52.502;16.732;2023-07-31T04:59:10;7.75;;;2.80;;
72319;SDS011;60269;52.502;16.732;2023-07-31T05:02:43;10.47;;;3.37;;
72319;SDS011;60269;52.502;16.732;2023-07-31T05:06:15;11.07;;;3.50;;
72319;SDS011;60269;52.502;16.732;2023-07-31T05:09:47;7.40;;;2.92;;
72319;SDS011;60269;52.502;16.732;2023-07-31T05:13:19;7.93;;;2.40;;
72319;SDS011;60269;52.502;16.732;2023-07-31T05:16:51;8.40;;;2.67;;
72319;SDS011;60269;52.502;16.732;2023-07-31T05:20:24;8.43;;;2.77;;
72319;SDS011;60269;52.502;16.732;2023-07-31T05:23:57;6.63;;;2.55;;
72319;SDS011;60269;52.502;16.732;2023-07-31T05:27:29;7.88;;;2.58;;
72319;SDS011;60269;52.502;16.732;2023-07-31T05:31:04;6.63;;;2.20;;
72319;SDS011;60269;52.502;16.732;2023-07-31T05:34:36;8.57;;;2.50;;
72319;SDS011;60269;52.502;16.732;2023-07-31T05:38:08;6.35;;;1.88;;
72319;SDS011;60269;52.502;16.732;2023-07-31T05:41:41;6.47;;;2.30;;
72319;SDS011;60269;52.502;16.732;2023-07-31T05:45:13;8.40;;;2.40;;
72319;SDS011;60269;52.502;16.732;2023-07-31T05:48:45;7.50;;;2.30;;
72319;SDS011;60269;52.502;16.732;2023-07-31T05:52:18;6.32;;;2.00;;
72319;SDS011;60269;52.502;16.732;2023-07-31T05:55:51;7.38;;;1.85;;
72319;SDS011;60269;52.502;16.732;2023-07-31T05:59:23;6.57;;;2.20;;
72319;SDS011;60269;52.502;16.732;2023-07-31T06:02:55;9.00;;;2.03;;
72319;SDS011;60269;52.502;16.732;2023-07-31T06:06:27;5.88;;;1.58;;
72319;SDS011;60269;52.502;16.732;2023-07-31T06:10:00;9.98;;;1.70;;
72319;SDS011;60269;52.502;16.732;2023-07-31T06:13:37;5.67;;;2.40;;
72319;SDS011;60269;52.502;16.732;2023-07-31T06:17:09;8.27;;;2.13;;
72319;SDS011;60269;52.502;16.732;2023-07-31T06:20:41;5.63;;;1.50;;
72319;SDS011;60269;52.502;16.732;2023-07-31T06:24:14;6.70;;;1.80;;
72319;SDS011;60269;52.502;16.732;2023-07-31T06:27:50;9.05;;;1.63;;
72319;SDS011;60269;52.502;16.732;2023-07-31T06:31:23;6.07;;;2.00;;
72319;SDS011;60269;52.502;16.732;2023-07-31T06:34:55;5.28;;;1.60;;
72319;SDS011;60269;52.502;16.732;2023-07-31T06:38:28;6.57;;;1.80;;
72319;SDS011;60269;52.502;16.732;2023-07-31T06:42:01;6.30;;;1.60;;
72319;SDS011;60269;52.502;16.732;2023-07-31T06:45:34;7.47;;;2.13;;
72319;SDS011;60269;52.502;16.732;2023-07-31T06:49:06;8.88;;;1.98;;
72319;SDS011;60269;52.502;16.732;2023-07-31T06:52:38;6.60;;;2.53;;
72319;SDS011;60269;52.502;16.732;2023-07-31T06:56:13;8.15;;;1.83;;
72319;SDS011;60269;52.502;16.732;2023-07-31T06:59:46;6.53;;;1.97;;
72319;SDS011;60269;52.502;16.732;2023-07-31T07:03:18;10.65;;;2.08;;
72319;SDS011;60269;52.502;16.732;2023-07-31T07:06:51;7.45;;;2.05;;
72319;SDS011;60269;52.502;16.732;2023-07-31T07:10:22;7.00;;;2.03;;
72319;SDS011;60269;52.502;16.732;2023-07-31T07:13:58;11.63;;;2.43;;
72319;SDS011;60269;52.502;16.732;2023-07-31T07:17:29;6.70;;;2.10;;
72319;SDS011;60269;52.502;16.732;2023-07-31T07:21:05;11.63;;;2.28;;
72319;SDS011;60269;52.502;16.732;2023-07-31T07:24:37;5.93;;;1.75;;
72319;SDS011;60269;52.502;16.732;2023-07-31T07:28:09;6.93;;;1.77;;
72319;SDS011;60269;52.502;16.732;2023-07-31T07:31:41;5.50;;;1.40;;
72319;SDS011;60269;52.502;16.732;2023-07-31T07:35:13;7.93;;;1.60;;
72319;SDS011;60269;52.502;16.732;2023-07-31T07:38:45;9.23;;;1.80;;
72319;SDS011;60269;52.502;16.732;2023-07-31T07:42:17;11.03;;;1.60;;
72319;SDS011;60269;52.502;16.732;2023-07-31T07:45:49;5.53;;;1.33;;
72319;SDS011;60269;52.502;16.732;2023-07-31T07:49:22;7.22;;;1.85;;
72319;SDS011;60269;52.502;16.732;2023-07-31T07:52:54;6.32;;;1.63;;
72319;SDS011;60269;52.502;16.732;2023-07-31T07:56:27;9.73;;;1.37;;
72319;SDS011;60269;52.502;16.732;2023-07-31T07:59:59;7.90;;;1.90;;
72319;SDS011;60269;52.502;16.732;2023-07-31T08:03:32;6.72;;;1.50;;
72319;SDS011;60269;52.502;16.732;2023-07-31T08:07:04;10.65;;;1.70;;
72319;SDS011;60269;52.502;16.732;2023-07-31T08:10:37;5.40;;;1.40;;
72319;SDS011;60269;52.502;16.732;2023-07-31T08:14:08;6.63;;;1.50;;
72319;SDS011;60269;52.502;16.732;2023-07-31T08:17:41;5.18;;;1.63;;
72319;SDS011;60269;52.502;16.732;2023-07-31T08:21:12;8.05;;;1.58;;
72319;SDS011;60269;52.502;16.732;2023-07-31T08:24:45;6.30;;;2.20;;
72319;SDS011;60269;52.502;16.732;2023-07-31T08:28:17;4.27;;;1.53;;
72319;SDS011;60269;52.502;16.732;2023-07-31T08:31:49;5.45;;;1.58;;
72319;SDS011;60269;52.502;16.732;2023-07-31T08:35:21;5.53;;;1.50;;
72319;SDS011;60269;52.502;16.732;2023-07-31T08:38:54;6.30;;;1.70;;
72319;SDS011;60269;52.502;16.732;2023-07-31T08:42:26;7.40;;;1.90;;
72319;SDS011;60269;52.502;16.732;2023-07-31T08:46:01;8.05;;;2.22;;
72319;SDS011;60269;52.502;16.732;2023-07-31T08:49:34;4.90;;;1.52;;
72319;SDS011;60269;52.502;16.732;2023-07-31T08:53:10;9.25;;;1.80;;
72319;SDS011;60269;52.502;16.732;2023-07-31T08:56:42;5.30;;;1.57;;
72319;SDS011;60269;52.502;16.732;2023-07-31T09:00:15;5.75;;;1.50;;
72319;SDS011;60269;52.502;16.732;2023-07-31T09:03:47;9.38;;;1.73;;
72319;SDS011;60269;52.502;16.732;2023-07-31T09:07:21;6.97;;;1.65;;
72319;SDS011;60269;52.502;16.732;2023-07-31T09:10:53;9.40;;;1.70;;
72319;SDS011;60269;52.502;16.732;2023-07-31T09:14:27;5.20;;;1.50;;
72319;SDS011;60269;52.502;16.732;2023-07-31T09:17:59;7.93;;;1.63;;
72319;SDS011;60269;52.502;16.732;2023-07-31T09:21:33;6.77;;;1.93;;
72319;SDS011;60269;52.502;16.732;2023-07-31T09:25:26;6.03;;;1.80;;
72319;SDS011;60269;52.502;16.732;2023-07-31T09:28:58;6.10;;;2.00;;
72319;SDS011;60269;52.502;16.732;2023-07-31T09:32:31;15.40;;;6.32;;
72319;SDS011;60269;52.502;16.732;2023-07-31T09:36:04;9.27;;;2.60;;
72319;SDS011;60269;52.502;16.732;2023-07-31T09:39:45;10.00;;;2.10;;
72319;SDS011;60269;52.502;16.732;2023-07-31T09:43:22;9.80;;;2.40;;
72319;SDS011;60269;52.502;16.732;2023-07-31T09:46:54;6.55;;;2.08;;
72319;SDS011;60269;52.502;16.732;2023-07-31T09:50:26;7.47;;;1.97;;
72319;SDS011;60269;52.502;16.732;2023-07-31T09:53:58;10.20;;;2.40;;
72319;SDS011;60269;52.502;16.732;2023-07-31T09:57:30;8.40;;;2.00;;
72319;SDS011;60269;52.502;16.732;2023-07-31T10:01:03;7.97;;;2.15;;
72319;SDS011;60269;52.502;16.732;2023-07-31T10:04:35;8.90;;;2.75;;
72319;SDS011;60269;52.502;16.732;2023-07-31T10:08:08;9.13;;;2.30;;
72319;SDS011;60269;52.502;16.732;2023-07-31T10:11:43;11.77;;;2.60;;
72319;SDS011;60269;52.502;16.732;2023-07-31T10:15:23;7.95;;;2.45;;
72319;SDS011;60269;52.502;16.732;2023-07-31T10:18:57;7.50;;;2.00;;
72319;SDS011;60269;52.502;16.732;2023-07-31T10:22:31;6.37;;;2.13;;
72319;SDS011;60269;52.502;16.732;2023-07-31T10:26:04;8.15;;;2.33;;
72319;SDS011;60269;52.502;16.732;2023-07-31T10:29:38;6.63;;;2.47;;
72319;SDS011;60269;52.502;16.732;2023-07-31T10:33:13;6.43;;;1.90;;
72319;SDS011;60269;52.502;16.732;2023-07-31T10:36:45;8.07;;;2.83;;
72319;SDS011;60269;52.502;16.732;2023-07-31T10:40:24;10.00;;;2.55;;
72319;SDS011;60269;52.502;16.732;2023-07-31T10:43:59;10.77;;;3.08;;
72319;SDS011;60269;52.502;16.732;2023-07-31T10:47:36;11.17;;;2.47;;
72319;SDS011;60269;52.502;16.732;2023-07-31T10:51:17;11.23;;;2.80;;
72319;SDS011;60269;52.502;16.732;2023-07-31T10:55:13;8.82;;;2.80;;
72319;SDS011;60269;52.502;16.732;2023-07-31T10:58:47;7.15;;;3.25;;
72319;SDS011;60269;52.502;16.732;2023-07-31T11:02:34;6.57;;;2.80;;
72319;SDS011;60269;52.502;16.732;2023-07-31T11:06:06;8.60;;;2.50;;
72319;SDS011;60269;52.502;16.732;2023-07-31T11:09:39;8.32;;;2.83;;
72319;SDS011;60269;52.502;16.732;2023-07-31T11:13:11;5.93;;;1.98;;
72319;SDS011;60269;52.502;16.732;2023-07-31T11:16:43;5.25;;;1.85;;
72319;SDS011;60269;52.502;16.732;2023-07-31T11:20:16;8.13;;;2.40;;
72319;SDS011;60269;52.502;16.732;2023-07-31T11:23:49;5.80;;;1.55;;
72319;SDS011;60269;52.502;16.732;2023-07-31T11:27:27;3.58;;;1.25;;
72319;SDS011;60269;52.502;16.732;2023-07-31T11:31:00;6.07;;;1.65;;
72319;SDS011;60269;52.502;16.732;2023-07-31T11:34:33;6.57;;;1.20;;
72319;SDS011;60269;52.502;16.732;2023-07-31T11:38:23;4.00;;;0.90;;
72319;SDS011;60269;52.502;16.732;2023-07-31T11:42:00;5.22;;;1.20;;
72319;SDS011;60269;52.502;16.732;2023-07-31T11:45:33;6.33;;;1.70;;
72319;SDS011;60269;52.502;16.732;2023-07-31T11:49:06;5.63;;;1.37;;
72319;SDS011;60269;52.502;16.732;2023-07-31T11:52:42;5.70;;;1.83;;
72319;SDS011;60269;52.502;16.732;2023-07-31T11:56:17;7.18;;;1.83;;
72319;SDS011;60269;52.502;16.732;2023-07-31T11:59:50;5.80;;;2.37;;
72319;SDS011;60269;52.502;16.732;2023-07-31T12:03:23;7.77;;;2.70;;
72319;SDS011;60269;52.502;16.732;2023-07-31T12:06:56;8.90;;;2.67;;
72319;SDS011;60269;52.502;16.732;2023-07-31T12:10:31;7.72;;;2.80;;
72319;SDS011;60269;52.502;16.732;2023-07-31T12:14:04;6.73;;;2.17;;
72319;SDS011;60269;52.502;16.732;2023-07-31T12:17:40;10.63;;;3.10;;
72319;SDS011;60269;52.502;16.732;2023-07-31T12:21:12;6.90;;;3.00;;
72319;SDS011;60269;52.502;16.732;2023-07-31T12:24:44;11.00;;;3.60;;
72319;SDS011;60269;52.502;16.732;2023-07-31T12:28:17;7.23;;;3.10;;
72319;SDS011;60269;52.502;16.732;2023-07-31T12:31:54;8.43;;;3.30;;
72319;SDS011;60269;52.502;16.732;2023-07-31T12:35:30;7.28;;;3.15;;
72319;SDS011;60269;52.502;16.732;2023-07-31T12:39:08;8.38;;;3.42;;
72319;SDS011;60269;52.502;16.732;2023-07-31T12:42:41;10.93;;;3.80;;
72319;SDS011;60269;52.502;16.732;2023-07-31T12:46:13;8.33;;;3.37;;
72319;SDS011;60269;52.502;16.732;2023-07-31T12:49:46;9.30;;;3.30;;
72319;SDS011;60269;52.502;16.732;2023-07-31T12:53:17;7.97;;;3.08;;
72319;SDS011;60269;52.502;16.732;2023-07-31T12:56:50;5.65;;;2.60;;
72319;SDS011;60269;52.502;16.732;2023-07-31T13:00:22;14.83;;;3.13;;
72319;SDS011;60269;52.502;16.732;2023-07-31T13:03:54;8.60;;;2.80;;
72319;SDS011;60269;52.502;16.732;2023-07-31T13:07:26;6.07;;;2.10;;
72319;SDS011;60269;52.502;16.732;2023-07-31T13:10:58;6.33;;;2.50;;
72319;SDS011;60269;52.502;16.732;2023-07-31T13:14:33;6.43;;;2.37;;
72319;SDS011;60269;52.502;16.732;2023-07-31T13:18:09;7.15;;;2.25;;
72319;SDS011;60269;52.502;16.732;2023-07-31T13:21:40;7.78;;;2.40;;
72319;SDS011;60269;52.502;16.732;2023-07-31T13:25:13;7.10;;;2.17;;
72319;SDS011;60269;52.502;16.732;2023-07-31T13:28:44;5.73;;;1.80;;
72319;SDS011;60269;52.502;16.732;2023-07-31T13:32:17;6.80;;;2.03;;
72319;SDS011;60269;52.502;16.732;2023-07-31T13:35:51;7.75;;;2.10;;
72319;SDS011;60269;52.502;16.732;2023-07-31T13:39:26;9.70;;;2.38;;
72319;SDS011;60269;52.502;16.732;2023-07-31T13:43:00;6.17;;;2.17;;
72319;SDS011;60269;52.502;16.732;2023-07-31T13:46:34;7.43;;;1.90;;
72319;SDS011;60269;52.502;16.732;2023-07-31T13:50:06;5.38;;;2.08;;
72319;SDS011;60269;52.502;16.732;2023-07-31T13:53:41;9.40;;;2.43;;
72319;SDS011;60269;52.502;16.732;2023-07-31T13:57:18;7.00;;;2.10;;
72319;SDS011;60269;52.502;16.732;2023-07-31T14:00:50;7.80;;;2.17;;
72319;SDS011;60269;52.502;16.732;2023-07-31T14:04:22;7.43;;;2.33;;
72319;SDS011;60269;52.502;16.732;2023-07-31T14:07:55;5.72;;;2.10;;
72319;SDS011;60269;52.502;16.732;2023-07-31T14:11:26;6.27;;;2.07;;
72319;SDS011;60269;52.502;16.732;2023-07-31T14:14:59;7.40;;;2.05;;
72319;SDS011;60269;52.502;16.732;2023-07-31T14:18:31;6.03;;;2.03;;
72319;SDS011;60269;52.502;16.732;2023-07-31T14:22:04;6.47;;;1.87;;
72319;SDS011;60269;52.502;16.732;2023-07-31T14:25:42;6.73;;;2.27;;
72319;SDS011;60269;52.502;16.732;2023-07-31T14:29:14;5.25;;;2.53;;
72319;SDS011;60269;52.502;16.732;2023-07-31T14:32:46;7.00;;;1.77;;
72319;SDS011;60269;52.502;16.732;2023-07-31T14:36:18;7.40;;;2.43;;
72319;SDS011;60269;52.502;16.732;2023-07-31T14:39:50;5.80;;;1.87;;
72319;SDS011;60269;52.502;16.732;2023-07-31T14:43:23;5.85;;;1.83;;
72319;SDS011;60269;52.502;16.732;2023-07-31T14:46:54;6.03;;;2.05;;
72319;SDS011;60269;52.502;16.732;2023-07-31T14:50:27;6.55;;;2.08;;
72319;SDS011;60269;52.502;16.732;2023-07-31T14:53:58;6.17;;;1.83;;
72319;SDS011;60269;52.502;16.732;2023-07-31T14:57:32;7.88;;;2.80;;
72319;SDS011;60269;52.502;16.732;2023-07-31T15:01:04;6.55;;;1.80;;
72319;SDS011;60269;52.502;16.732;2023-07-31T15:04:37;5.43;;;1.40;;
72319;SDS011;60269;52.502;16.732;2023-07-31T15:08:09;7.47;;;1.70;;
72319;SDS011;60269;52.502;16.732;2023-07-31T15:11:43;4.97;;;1.52;;
72319;SDS011;60269;52.502;16.732;2023-07-31T15:15:15;6.22;;;2.00;;
72319;SDS011;60269;52.502;16.732;2023-07-31T15:18:50;6.87;;;1.93;;
72319;SDS011;60269;52.502;16.732;2023-07-31T15:22:22;6.30;;;1.40;;
72319;SDS011;60269;52.502;16.732;2023-07-31T15:25:55;4.03;;;1.25;;
72319;SDS011;60269;52.502;16.732;2023-07-31T15:29:27;5.63;;;1.08;;
72319;SDS011;60269;52.502;16.732;2023-07-31T15:32:59;4.83;;;1.07;;
72319;SDS011;60269;52.502;16.732;2023-07-31T15:36:32;6.07;;;1.53;;
72319;SDS011;60269;52.502;16.732;2023-07-31T15:40:04;6.75;;;1.45;;
72319;SDS011;60269;52.502;16.732;2023-07-31T15:43:37;5.32;;;1.20;;
72319;SDS011;60269;52.502;16.732;2023-07-31T15:47:09;4.93;;;1.30;;
72319;SDS011;60269;52.502;16.732;2023-07-31T15:50:41;4.00;;;1.30;;
72319;SDS011;60269;52.502;16.732;2023-07-31T15:54:13;5.80;;;1.25;;
72319;SDS011;60269;52.502;16.732;2023-07-31T15:57:48;5.78;;;1.30;;
72319;SDS011;60269;52.502;16.732;2023-07-31T16:01:21;7.13;;;1.60;;
72319;SDS011;60269;52.502;16.732;2023-07-31T16:04:53;6.23;;;1.43;;
72319;SDS011;60269;52.502;16.732;2023-07-31T16:08:26;6.25;;;1.65;;
72319;SDS011;60269;52.502;16.732;2023-07-31T16:11:57;4.00;;;1.10;;
72319;SDS011;60269;52.502;16.732;2023-07-31T16:15:30;4.80;;;1.07;;
72319;SDS011;60269;52.502;16.732;2023-07-31T16:19:03;4.33;;;0.90;;
72319;SDS011;60269;52.502;16.732;2023-07-31T16:22:36;4.53;;;0.90;;
72319;SDS011;60269;52.502;16.732;2023-07-31T16:26:10;4.63;;;1.20;;
72319;SDS011;60269;52.502;16.732;2023-07-31T16:29:43;5.93;;;1.40;;
72319;SDS011;60269;52.502;16.732;2023-07-31T16:33:15;3.97;;;1.10;;
72319;SDS011;60269;52.502;16.732;2023-07-31T16:36:47;4.75;;;1.10;;
72319;SDS011;60269;52.502;16.732;2023-07-31T16:40:21;3.67;;;0.95;;
72319;SDS011;60269;52.502;16.732;2023-07-31T16:43:53;4.03;;;1.00;;
72319;SDS011;60269;52.502;16.732;2023-07-31T16:47:25;4.97;;;1.40;;
72319;SDS011;60269;52.502;16.732;2023-07-31T16:50:58;4.65;;;1.05;;
72319;SDS011;60269;52.502;16.732;2023-07-31T16:54:31;4.15;;;0.70;;
72319;SDS011;60269;52.502;16.732;2023-07-31T16:58:04;4.63;;;0.93;;
72319;SDS011;60269;52.502;16.732;2023-07-31T17:01:36;5.40;;;1.80;;
72319;SDS011;60269;52.502;16.732;2023-07-31T17:05:09;4.00;;;1.10;;
72319;SDS011;60269;52.502;16.732;2023-07-31T17:08:41;3.88;;;1.10;;
72319;SDS011;60269;52.502;16.732;2023-07-31T17:12:13;5.40;;;1.27;;
72319;SDS011;60269;52.502;16.732;2023-07-31T17:15:45;4.73;;;1.13;;
72319;SDS011;60269;52.502;16.732;2023-07-31T17:19:18;4.85;;;1.10;;
72319;SDS011;60269;52.502;16.732;2023-07-31T17:22:50;4.32;;;0.98;;
72319;SDS011;60269;52.502;16.732;2023-07-31T17:26:22;4.93;;;1.40;;
72319;SDS011;60269;52.502;16.732;2023-07-31T17:29:55;5.37;;;1.37;;
72319;SDS011;60269;52.502;16.732;2023-07-31T17:33:27;3.38;;;1.00;;
72319;SDS011;60269;52.502;16.732;2023-07-31T17:36:59;4.97;;;1.15;;
72319;SDS011;60269;52.502;16.732;2023-07-31T17:40:32;5.10;;;1.20;;
72319;SDS011;60269;52.502;16.732;2023-07-31T17:44:04;3.83;;;1.07;;
72319;SDS011;60269;52.502;16.732;2023-07-31T17:47:36;5.05;;;1.10;;
72319;SDS011;60269;52.502;16.732;2023-07-31T17:51:08;4.85;;;1.20;;
72319;SDS011;60269;52.502;16.732;2023-07-31T17:54:41;6.80;;;1.23;;
72319;SDS011;60269;52.502;16.732;2023-07-31T17:58:15;6.43;;;1.60;;
72319;SDS011;60269;52.502;16.732;2023-07-31T18:01:47;9.48;;;1.42;;
72319;SDS011;60269;52.502;16.732;2023-07-31T18:05:19;6.10;;;1.02;;
72319;SDS011;60269;52.502;16.732;2023-07-31T18:08:51;5.10;;;1.40;;
72319;SDS011;60269;52.502;16.732;2023-07-31T18:12:23;4.50;;;0.90;;
72319;SDS011;60269;52.502;16.732;2023-07-31T18:15:56;6.00;;;1.30;;
72319;SDS011;60269;52.502;16.732;2023-07-31T18:19:27;6.68;;;1.30;;
72319;SDS011;60269;52.502;16.732;2023-07-31T18:23:02;6.67;;;1.60;;
72319;SDS011;60269;52.502;16.732;2023-07-31T18:26:34;4.77;;;1.10;;
72319;SDS011;60269;52.502;16.732;2023-07-31T18:30:09;5.57;;;1.10;;
72319;SDS011;60269;52.502;16.732;2023-07-31T18:33:41;4.50;;;1.02;;
72319;SDS011;60269;52.502;16.732;2023-07-31T18:37:14;5.53;;;1.50;;
72319;SDS011;60269;52.502;16.732;2023-07-31T18:40:46;5.90;;;1.60;;
72319;SDS011;60269;52.502;16.732;2023-07-31T18:44:18;7.15;;;1.50;;
72319;SDS011;60269;52.502;16.732;2023-07-31T18:47:50;4.72;;;1.20;;
72319;SDS011;60269;52.502;16.732;2023-07-31T18:51:23;5.40;;;1.17;;
72319;SDS011;60269;52.502;16.732;2023-07-31T18:54:55;6.40;;;1.50;;
72319;SDS011;60269;52.502;16.732;2023-07-31T18:58:27;5.40;;;1.65;;
72319;SDS011;60269;52.502;16.732;2023-07-31T19:01:59;6.35;;;1.52;;
72319;SDS011;60269;52.502;16.732;2023-07-31T19:05:31;5.37;;;1.40;;
72319;SDS011;60269;52.502;16.732;2023-07-31T19:09:03;6.03;;;1.23;;
72319;SDS011;60269;52.502;16.732;2023-07-31T19:12:35;7.45;;;1.40;;
72319;SDS011;60269;52.502;16.732;2023-07-31T19:16:09;5.25;;;1.15;;
72319;SDS011;60269;52.502;16.732;2023-07-31T19:19:43;5.83;;;1.50;;
72319;SDS011;60269;52.502;16.732;2023-07-31T19:23:15;5.63;;;1.30;;
72319;SDS011;60269;52.502;16.732;2023-07-31T19:26:48;6.05;;;1.60;;
72319;SDS011;60269;52.502;16.732;2023-07-31T19:30:19;4.82;;;1.30;;
72319;SDS011;60269;52.502;16.732;2023-07-31T19:33:51;5.38;;;1.50;;
72319;SDS011;60269;52.502;16.732;2023-07-31T19:37:23;5.40;;;1.37;;
72319;SDS011;60269;52.502;16.732;2023-07-31T19:40:57;5.88;;;1.30;;
72319;SDS011;60269;52.502;16.732;2023-07-31T19:44:31;5.75;;;1.38;;
72319;SDS011;60269;52.502;16.732;2023-07-31T19:48:04;5.85;;;1.40;;
72319;SDS011;60269;52.502;16.732;2023-07-31T19:51:36;5.53;;;1.57;;
72319;SDS011;60269;52.502;16.732;2023-07-31T19:55:09;5.90;;;1.40;;
72319;SDS011;60269;52.502;16.732;2023-07-31T19:58:41;6.28;;;1.55;;
72319;SDS011;60269;52.502;16.732;2023-07-31T20:02:13;7.55;;;1.60;;
72319;SDS011;60269;52.502;16.732;2023-07-31T20:05:45;9.13;;;1.67;;
72319;SDS011;60269;52.502;16.732;2023-07-31T20:09:20;5.23;;;1.10;;
72319;SDS011;60269;52.502;16.732;2023-07-31T20:12:52;6.25;;;1.83;;
72319;SDS011;60269;52.502;16.732;2023-07-31T20:16:25;6.53;;;1.50;;
72319;SDS011;60269;52.502;16.732;2023-07-31T20:19:56;5.57;;;1.60;;
72319;SDS011;60269;52.502;16.732;2023-07-31T20:23:29;5.60;;;1.37;;
72319;SDS011;60269;52.502;16.732;2023-07-31T20:27:17;4.78;;;1.10;;
72319;SDS011;60269;52.502;16.732;2023-07-31T20:30:52;9.70;;;1.85;;
72319;SDS011;60269;52.502;16.732;2023-07-31T20:34:24;5.90;;;1.17;;
72319;SDS011;60269;52.502;16.732;2023-07-31T20:37:56;6.90;;;1.30;;
72319;SDS011;60269;52.502;16.732;2023-07-31T20:41:28;7.07;;;1.60;;
72319;SDS011;60269;52.502;16.732;2023-07-31T20:45:00;6.57;;;1.48;;
72319;SDS011;60269;52.502;16.732;2023-07-31T20:48:32;4.87;;;1.40;;
72319;SDS011;60269;52.502;16.732;2023-07-31T20:52:05;5.77;;;1.47;;
72319;SDS011;60269;52.502;16.732;2023-07-31T20:55:37;7.05;;;1.60;;
72319;SDS011;60269;52.502;16.732;2023-07-31T20:59:10;6.32;;;1.42;;
72319;SDS011;60269;52.502;16.732;2023-07-31T21:02:42;6.38;;;1.70;;
72319;SDS011;60269;52.502;16.732;2023-07-31T21:06:15;5.80;;;1.50;;
72319;SDS011;60269;52.502;16.732;2023-07-31T21:09:48;4.97;;;1.38;;